createdAt,value
2023-10-26T00:02:17.983Z,99485.25
2023-10-26T00:04:45.110Z,99481.75
2023-10-26T00:07:12.294Z,99490.59
2023-10-26T00:09:39.403Z,99487.34
2023-10-26T00:12:06.731Z,99485.63
2023-10-26T00:14:34.903Z,99482.41
2023-10-26T00:17:01.925Z,99488.34
2023-10-26T00:19:28.935Z,99483.66
2023-10-26T00:21:55.923Z,99484.31
2023-10-26T00:24:23.166Z,99479.78
2023-10-26T00:26:50.521Z,99486.59
2023-10-26T00:29:17.391Z,99474.19
2023-10-26T00:31:44.231Z,99476.63
2023-10-26T00:34:11.254Z,99474.69
2023-10-26T00:36:38.225Z,99469.50
2023-10-26T00:39:05.220Z,99474.75
2023-10-26T00:41:32.417Z,99472.28
2023-10-26T00:43:59.300Z,99464.78
2023-10-26T00:46:26.850Z,99468.88
2023-10-26T00:48:54.591Z,99468.44
2023-10-26T00:51:22.542Z,99473.16
2023-10-26T00:53:50.716Z,99470.31
2023-10-26T00:56:22.019Z,99472.09
2023-10-26T00:58:49.704Z,99456.22
2023-10-26T01:01:17.435Z,99458.97
2023-10-26T01:03:47.271Z,99455.88
2023-10-26T01:06:16.694Z,99463.66
2023-10-26T01:08:43.848Z,99456.22
2023-10-26T01:11:10.950Z,99463.16
2023-10-26T01:13:38.326Z,99454.06
2023-10-26T01:16:05.888Z,99449.91
2023-10-26T01:18:33.169Z,99454.28
2023-10-26T01:21:00.467Z,99441.72
2023-10-26T01:23:27.389Z,99447.34
2023-10-26T01:25:57.123Z,99443.06
2023-10-26T01:28:24.738Z,99441.09
2023-10-26T01:30:52.682Z,99438.81
2023-10-26T01:33:20.609Z,99437.97
2023-10-26T01:35:47.828Z,99440.59
2023-10-26T01:38:14.982Z,99438.97
2023-10-26T01:40:42.326Z,99436.50
2023-10-26T01:43:09.316Z,99432.41
2023-10-26T01:45:36.301Z,99433.03
2023-10-26T01:48:04.374Z,99436.13
2023-10-26T01:50:32.553Z,99439.22
2023-10-26T01:52:59.548Z,99442.19
2023-10-26T01:55:26.690Z,99446.56
2023-10-26T01:57:54.016Z,99446.25
2023-10-26T02:00:21.206Z,99451.00
2023-10-26T02:02:50.345Z,99441.59
2023-10-26T02:05:17.776Z,99449.16
2023-10-26T02:07:45.027Z,99452.38
2023-10-26T02:10:16.092Z,99452.22
2023-10-26T02:12:43.168Z,99441.81
2023-10-26T02:15:11.027Z,99437.59
2023-10-26T02:17:38.432Z,99438.13
2023-10-26T02:20:06.069Z,99437.50
2023-10-26T02:22:33.011Z,99428.69
2023-10-26T02:25:00.022Z,99423.75
2023-10-26T02:27:26.965Z,99433.09
2023-10-26T02:29:53.879Z,99425.38
2023-10-26T02:32:20.736Z,99429.13
2023-10-26T02:34:47.851Z,99435.38
2023-10-26T02:37:14.941Z,99432.75
2023-10-26T02:39:41.831Z,99436.91
2023-10-26T02:42:10.225Z,99430.91
2023-10-26T02:44:37.637Z,99432.59
2023-10-26T02:47:04.804Z,99435.00
2023-10-26T02:49:32.215Z,99430.38
2023-10-26T02:51:59.146Z,99426.78
2023-10-26T02:54:29.434Z,99431.88
2023-10-26T02:56:56.526Z,99438.41
2023-10-26T02:59:23.434Z,99437.69
2023-10-26T03:01:50.318Z,99433.22
2023-10-26T03:04:17.545Z,99427.22
2023-10-26T03:06:44.670Z,99429.75
2023-10-26T03:09:11.865Z,99433.94
2023-10-26T03:11:38.864Z,99426.53
2023-10-26T03:14:05.819Z,99430.78
2023-10-26T03:16:34.422Z,99426.00
2023-10-26T03:19:01.525Z,99415.84
2023-10-26T03:21:28.839Z,99414.09
2023-10-26T03:23:55.765Z,99406.22
2023-10-26T03:26:23.155Z,99414.53
2023-10-26T03:28:50.967Z,99407.84
2023-10-26T03:31:18.187Z,99411.53
2023-10-26T03:33:45.283Z,99412.53
2023-10-26T03:36:16.996Z,99409.38
2023-10-26T03:38:44.756Z,99415.91
2023-10-26T03:41:11.880Z,99416.28
2023-10-26T03:43:38.814Z,99402.09
2023-10-26T03:46:06.231Z,99403.91
2023-10-26T03:48:35.372Z,99399.06
2023-10-26T03:51:03.410Z,99400.94
2023-10-26T03:53:31.203Z,99399.06
2023-10-26T03:55:59.349Z,99407.25
2023-10-26T03:58:26.848Z,99409.53
2023-10-26T04:00:53.949Z,99412.69
2023-10-26T04:03:20.989Z,99412.16
2023-10-26T04:05:48.005Z,99406.69
2023-10-26T04:08:15.172Z,99404.78
2023-10-26T04:10:45.479Z,99409.31
2023-10-26T04:13:12.386Z,99405.38
2023-10-26T04:15:39.351Z,99405.38
2023-10-26T04:18:09.799Z,99411.31
2023-10-26T04:20:36.736Z,99399.28
2023-10-26T04:23:05.077Z,99407.84
2023-10-26T04:25:42.340Z,99399.53
2023-10-26T04:28:19.483Z,99404.81
2023-10-26T04:30:50.640Z,99401.75
2023-10-26T04:33:18.352Z,99396.97
2023-10-26T04:35:47.226Z,99399.72
2023-10-26T04:38:14.151Z,99392.00
2023-10-26T04:40:42.341Z,99392.72
2023-10-26T04:43:10.241Z,99401.75
2023-10-26T04:45:37.290Z,99393.22
2023-10-26T04:48:04.897Z,99398.19
2023-10-26T04:50:32.470Z,99397.91
2023-10-26T04:53:00.314Z,99401.38
2023-10-26T04:55:35.363Z,99403.28
2023-10-26T04:58:03.680Z,99401.38
2023-10-26T05:00:31.763Z,99409.56
2023-10-26T05:02:59.091Z,99397.53
2023-10-26T05:05:26.391Z,99394.44
2023-10-26T05:07:53.727Z,99393.13
2023-10-26T05:10:21.519Z,99387.53
2023-10-26T05:12:48.491Z,99389.13
2023-10-26T05:15:15.593Z,99386.28
2023-10-26T05:17:42.866Z,99379.47
2023-10-26T05:20:10.816Z,99377.34
2023-10-26T05:22:38.186Z,99374.88
2023-10-26T05:25:06.068Z,99366.47
2023-10-26T05:27:36.638Z,99372.41
2023-10-26T05:30:05.539Z,99370.00
2023-10-26T05:32:32.735Z,99372.53
2023-10-26T05:34:59.881Z,99367.94
2023-10-26T05:37:26.874Z,99374.66
2023-10-26T05:39:53.737Z,99366.34
2023-10-26T05:42:20.711Z,99372.63
2023-10-26T05:44:47.753Z,99371.00
2023-10-26T05:47:20.102Z,99372.53
2023-10-26T05:49:48.097Z,99371.16
2023-10-26T05:52:15.076Z,99365.28
2023-10-26T05:54:42.573Z,99367.34
2023-10-26T05:57:09.980Z,99369.44
2023-10-26T05:59:36.892Z,99363.97
2023-10-26T06:02:03.778Z,99366.50
2023-10-26T06:04:30.835Z,99362.63
2023-10-26T06:06:57.718Z,99365.28
2023-10-26T06:09:25.506Z,99357.56
2023-10-26T06:11:53.215Z,99364.50
2023-10-26T06:14:20.653Z,99356.44
2023-10-26T06:16:48.070Z,99361.25
2023-10-26T06:19:15.000Z,99362.25
2023-10-26T06:21:41.925Z,99357.31
2023-10-26T06:24:09.192Z,99360.63
2023-10-26T06:26:36.160Z,99361.41
2023-10-26T06:29:04.284Z,99372.56
2023-10-26T06:31:31.244Z,99358.16
2023-10-26T06:33:58.425Z,99356.91
2023-10-26T06:36:25.345Z,99365.00
2023-10-26T06:38:52.426Z,99357.09
2023-10-26T06:41:19.356Z,99351.22
2023-10-26T06:43:46.280Z,99358.97
2023-10-26T06:46:13.385Z,99359.16
2023-10-26T06:48:40.342Z,99361.88
2023-10-26T06:51:07.758Z,99358.78
2023-10-26T06:53:34.951Z,99357.31
2023-10-26T06:56:01.971Z,99354.91
2023-10-26T06:58:29.100Z,99343.03
2023-10-26T07:00:56.147Z,99352.81
2023-10-26T07:03:23.390Z,99354.44
2023-10-26T07:05:50.542Z,99353.72
2023-10-26T07:08:18.007Z,99363.13
2023-10-26T07:10:45.168Z,99352.09
2023-10-26T07:13:13.147Z,99350.25
2023-10-26T07:15:40.461Z,99359.41
2023-10-26T07:18:07.604Z,99363.59
2023-10-26T07:20:34.584Z,99370.44
2023-10-26T07:23:01.630Z,99359.50
2023-10-26T07:25:28.731Z,99356.41
2023-10-26T07:27:56.163Z,99357.53
2023-10-26T07:30:23.822Z,99353.38
2023-10-26T07:32:51.039Z,99344.75
2023-10-26T07:35:18.473Z,99345.44
2023-10-26T07:37:50.029Z,99338.47
2023-10-26T07:40:29.265Z,99347.31
2023-10-26T07:42:58.003Z,99343.97
2023-10-26T07:45:27.162Z,99347.56
2023-10-26T07:48:01.861Z,99340.09
2023-10-26T07:50:30.151Z,99334.00
2023-10-26T07:52:57.403Z,99342.56
2023-10-26T07:55:24.370Z,99345.53
2023-10-26T07:57:51.634Z,99330.84
2023-10-26T08:00:19.063Z,99321.28
2023-10-26T08:02:46.265Z,99325.19
2023-10-26T08:05:16.458Z,99313.72
2023-10-26T08:07:43.558Z,99315.00
2023-10-26T08:10:10.793Z,99321.22
2023-10-26T08:12:38.108Z,99306.88
2023-10-26T08:16:09.135Z,99317.06
2023-10-26T08:17:53.073Z,99310.31
2023-10-26T08:20:20.755Z,99313.66
2023-10-26T08:22:47.996Z,99321.34
2023-10-26T08:25:18.841Z,99318.03
2023-10-26T08:27:47.850Z,99323.03
2023-10-26T08:30:14.991Z,99319.50
2023-10-26T08:32:42.003Z,99326.03
2023-10-26T08:35:09.204Z,99315.03
2023-10-26T08:37:36.269Z,99324.25
2023-10-26T08:40:04.162Z,99315.63
2023-10-26T08:42:31.763Z,99330.03
2023-10-26T08:45:00.557Z,99325.88
2023-10-26T08:47:29.154Z,99321.66
2023-10-26T08:50:14.845Z,99314.06
2023-10-26T08:52:43.108Z,99313.47
2023-10-26T08:55:10.429Z,99309.41
2023-10-26T08:57:55.300Z,99310.56
2023-10-26T09:00:24.715Z,99301.72
2023-10-26T09:02:52.422Z,99305.97
2023-10-26T09:05:19.740Z,99307.75
2023-10-26T09:07:46.849Z,99307.00
2023-10-26T09:10:13.745Z,99300.34
2023-10-26T09:12:40.804Z,99297.00
2023-10-26T09:15:08.159Z,99293.78
2023-10-26T09:17:36.083Z,99299.91
2023-10-26T09:20:21.962Z,99302.25
2023-10-26T09:22:49.255Z,99283.63
2023-10-26T09:25:16.853Z,99283.75
2023-10-26T09:27:45.534Z,99280.34
2023-10-26T09:30:43.552Z,99290.03
2023-10-26T09:33:24.661Z,99287.69
2023-10-26T09:35:51.933Z,99270.88
2023-10-26T09:38:33.902Z,99275.56
2023-10-26T09:41:00.920Z,99272.25
2023-10-26T09:43:27.813Z,99262.22
2023-10-26T09:45:54.833Z,99264.56
2023-10-26T09:48:21.995Z,99265.38
2023-10-26T09:50:50.278Z,99266.47
2023-10-26T09:53:19.339Z,99255.53
2023-10-26T09:55:48.503Z,99238.78
2023-10-26T09:58:17.926Z,99232.16
2023-10-26T10:00:44.957Z,99231.97
2023-10-26T10:03:16.689Z,99236.28
2023-10-26T10:05:45.226Z,99240.41
2023-10-26T10:08:12.651Z,99237.34
2023-10-26T10:11:18.329Z,99234.75
2023-10-26T10:13:45.581Z,99224.19
2023-10-26T10:16:37.875Z,99192.09
2023-10-26T10:19:20.727Z,99174.91
2023-10-26T10:21:53.179Z,99172.81
2023-10-26T10:24:38.951Z,99159.69
2023-10-26T10:27:12.859Z,99180.13
2023-10-26T10:29:43.759Z,99181.78
2023-10-26T10:32:12.200Z,99165.19
2023-10-26T10:34:47.260Z,99172.69
2023-10-26T10:37:24.339Z,99198.72
2023-10-26T10:40:16.376Z,99211.69
2023-10-26T10:42:52.007Z,99220.94
2023-10-26T10:45:20.015Z,99201.13
2023-10-26T10:47:50.747Z,99188.13
2023-10-26T10:50:22.810Z,99195.03
2023-10-26T10:52:55.111Z,99184.94
2023-10-26T10:55:30.780Z,99194.56
2023-10-26T10:57:59.050Z,99191.03
2023-10-26T11:00:47.430Z,99191.44
2023-10-26T11:03:21.365Z,99227.19
2023-10-26T11:05:49.365Z,99206.56
2023-10-26T11:08:16.396Z,99163.16
2023-10-26T11:10:49.716Z,99158.03
2023-10-26T11:13:23.125Z,99150.16
2023-10-26T11:15:50.422Z,99180.84
2023-10-26T11:18:17.603Z,99172.38
2023-10-26T11:20:47.741Z,99159.75
2023-10-26T11:23:20.012Z,99154.59
2023-10-26T11:25:46.964Z,99155.47
2023-10-26T11:28:14.381Z,99154.81
2023-10-26T11:30:52.602Z,99144.94
2023-10-26T11:33:35.195Z,99127.13
2023-10-26T11:36:12.553Z,99145.81
2023-10-26T11:38:48.112Z,99123.75
2023-10-26T11:41:25.761Z,99109.16
2023-10-26T11:43:52.978Z,99118.13
2023-10-26T11:46:30.837Z,99125.78
2023-10-26T11:48:58.081Z,99134.47
2023-10-26T11:51:25.413Z,99145.78
2023-10-26T11:53:52.328Z,99174.38
2023-10-26T11:56:19.717Z,99171.88
2023-10-26T11:58:48.172Z,99171.88
2023-10-26T12:01:15.263Z,99164.28
2023-10-26T12:03:46.645Z,99165.53
2023-10-26T12:06:14.386Z,99137.28
2023-10-26T12:08:41.531Z,99166.00
2023-10-26T12:11:08.519Z,99174.63
2023-10-26T12:13:36.851Z,99154.22
2023-10-26T12:16:04.148Z,99162.81
2023-10-26T12:18:31.154Z,99163.63
2023-10-26T12:20:58.155Z,99154.22
2023-10-26T12:23:25.127Z,99145.88
2023-10-26T12:25:52.027Z,99131.19
2023-10-26T12:28:25.661Z,99142.78
2023-10-26T12:30:54.871Z,99150.09
2023-10-26T12:33:22.200Z,99162.59
2023-10-26T12:35:49.359Z,99152.94
2023-10-26T12:38:16.520Z,99153.63
2023-10-26T12:40:43.523Z,99146.63
2023-10-26T12:43:10.449Z,99136.59
2023-10-26T12:45:38.137Z,99133.91
2023-10-26T12:48:05.398Z,99144.63
2023-10-26T12:50:32.366Z,99147.91
2023-10-26T12:53:00.079Z,99130.88
2023-10-26T12:55:26.923Z,99131.72
2023-10-26T12:57:55.319Z,99141.16
2023-10-26T13:00:23.650Z,99120.94
2023-10-26T13:02:50.719Z,99101.34
2023-10-26T13:05:17.586Z,99110.59
2023-10-26T13:07:44.392Z,99113.94
2023-10-26T13:10:11.453Z,99099.44
2023-10-26T13:12:40.221Z,99140.13
2023-10-26T13:15:07.694Z,99095.94
2023-10-26T13:17:35.203Z,99097.44
2023-10-26T13:20:02.524Z,99101.94
2023-10-26T13:22:31.341Z,99098.75
2023-10-26T13:24:58.385Z,99093.66
2023-10-26T13:27:26.860Z,99067.22
2023-10-26T13:29:53.850Z,99086.66
2023-10-26T13:32:20.744Z,99088.19
2023-10-26T13:34:47.639Z,99088.28
2023-10-26T13:37:14.665Z,99069.66
2023-10-26T13:39:41.650Z,99087.56
2023-10-26T13:42:08.656Z,99064.88
2023-10-26T13:44:35.616Z,99067.38
2023-10-26T13:47:02.680Z,99071.75
2023-10-26T13:49:29.601Z,99098.22
2023-10-26T13:51:56.586Z,99073.66
2023-10-26T13:54:23.628Z,99065.06
2023-10-26T13:56:50.606Z,99062.50
2023-10-26T13:59:17.528Z,99062.47
2023-10-26T14:01:44.387Z,99073.41
2023-10-26T14:04:11.248Z,99058.91
2023-10-26T14:06:38.173Z,99069.81
2023-10-26T14:09:05.274Z,99068.16
2023-10-26T14:11:32.681Z,99057.97
2023-10-26T14:13:59.822Z,99063.81
2023-10-26T14:16:29.047Z,99061.31
2023-10-26T14:19:00.500Z,99051.97
2023-10-26T14:21:28.141Z,99062.03
2023-10-26T14:23:55.118Z,99046.78
2023-10-26T14:26:22.075Z,99052.63
2023-10-26T14:28:49.074Z,99056.66
2023-10-26T14:31:19.029Z,99065.13
2023-10-26T14:33:45.980Z,99070.91
2023-10-26T14:36:13.078Z,99072.81
2023-10-26T14:38:40.092Z,99054.47
2023-10-26T14:41:06.980Z,99053.28
2023-10-26T14:43:33.835Z,99058.25
2023-10-26T14:46:00.925Z,98993.56
2023-10-26T14:48:28.313Z,99004.13
2023-10-26T14:50:59.813Z,99026.03
2023-10-26T14:53:26.790Z,99044.66
2023-10-26T14:55:53.880Z,99035.00
2023-10-26T14:58:22.055Z,99050.63
2023-10-26T15:00:51.332Z,99062.00
2023-10-26T15:03:18.344Z,99067.50
2023-10-26T15:05:46.005Z,99078.16
2023-10-26T15:08:13.194Z,99079.56
2023-10-26T15:10:51.356Z,99073.66
2023-10-26T15:13:20.036Z,99074.09
2023-10-26T15:15:48.637Z,99079.13
2023-10-26T15:18:15.631Z,99075.66
2023-10-26T15:20:42.527Z,99072.28
2023-10-26T15:23:10.427Z,99063.88
2023-10-26T15:25:37.608Z,99054.59
2023-10-26T15:28:04.875Z,99056.28
2023-10-26T15:30:32.123Z,99058.91
2023-10-26T15:32:59.333Z,99048.72
2023-10-26T15:35:28.118Z,99062.25
2023-10-26T15:37:55.574Z,99058.81
2023-10-26T15:40:22.639Z,99059.59
2023-10-26T15:42:49.776Z,99063.84
2023-10-26T15:45:17.028Z,99054.56
2023-10-26T15:47:45.077Z,99063.06
2023-10-26T15:50:12.270Z,99055.38
2023-10-26T15:52:39.192Z,99057.09
2023-10-26T15:55:06.822Z,99041.81
2023-10-26T15:57:34.312Z,99047.72
2023-10-26T16:00:01.413Z,99041.72
2023-10-26T16:02:28.524Z,99047.69
2023-10-26T16:04:55.521Z,99035.72
2023-10-26T16:07:22.485Z,99044.19
2023-10-26T16:09:49.721Z,99042.38
2023-10-26T16:12:17.419Z,99043.00
2023-10-26T16:14:44.674Z,99056.47
2023-10-26T16:17:11.902Z,99050.50
2023-10-26T16:19:38.860Z,99048.75
2023-10-26T16:22:05.913Z,99041.91
2023-10-26T16:24:32.984Z,99039.28
2023-10-26T16:26:59.914Z,99035.84
2023-10-26T16:29:26.794Z,99035.84
2023-10-26T16:31:53.915Z,99034.19
2023-10-26T16:34:20.884Z,99037.56
2023-10-26T16:36:50.685Z,99037.56
2023-10-26T16:39:18.750Z,99029.06
2023-10-26T16:41:45.602Z,99031.59
2023-10-26T16:44:12.495Z,99028.28
2023-10-26T16:46:39.413Z,99032.56
2023-10-26T16:49:06.438Z,99024.09
2023-10-26T16:51:33.358Z,99030.06
2023-10-26T16:54:00.347Z,99019.88
2023-10-26T16:56:28.689Z,99016.44
2023-10-26T16:58:55.586Z,99013.72
2023-10-26T17:01:23.918Z,99015.28
2023-10-26T17:03:50.905Z,99007.47
2023-10-26T17:06:17.945Z,99018.44
2023-10-26T17:08:44.866Z,99013.25
2023-10-26T17:11:11.796Z,99015.00
2023-10-26T17:13:39.803Z,99006.56
2023-10-26T17:16:08.109Z,99006.56
2023-10-26T17:18:35.040Z,99005.66
2023-10-26T17:21:02.039Z,98999.72
2023-10-26T17:23:29.114Z,98995.50
2023-10-26T17:25:55.967Z,98999.63
2023-10-26T17:28:22.923Z,98998.59
2023-10-26T17:30:50.489Z,99004.28
2023-10-26T17:33:20.845Z,99005.06
2023-10-26T17:35:51.256Z,99000.63
2023-10-26T17:38:18.426Z,98998.81
2023-10-26T17:40:46.864Z,99003.78
2023-10-26T17:43:14.880Z,98997.00
2023-10-26T17:45:42.301Z,98988.41
2023-10-26T17:48:10.933Z,98992.72
2023-10-26T17:50:43.684Z,98995.25
2023-10-26T17:53:11.030Z,98992.59
2023-10-26T17:55:38.449Z,98995.06
2023-10-26T17:58:06.032Z,98998.31
2023-10-26T18:00:33.587Z,99001.69
2023-10-26T18:03:00.941Z,98996.59
2023-10-26T18:05:28.625Z,98998.31
2023-10-26T18:07:56.114Z,98990.63
2023-10-26T18:10:23.442Z,98993.09
2023-10-26T18:12:50.751Z,98988.66
2023-10-26T18:15:18.375Z,98991.03
2023-10-26T18:17:45.646Z,98993.16
2023-10-26T18:20:13.243Z,98991.84
2023-10-26T18:22:40.858Z,98993.91
2023-10-26T18:25:10.749Z,99005.50
2023-10-26T18:27:38.526Z,99001.78
2023-10-26T18:30:06.951Z,99004.13
2023-10-26T18:32:34.059Z,98998.91
2023-10-26T18:35:01.849Z,99005.75
2023-10-26T18:37:33.599Z,98996.31
2023-10-26T18:40:01.086Z,98986.06
2023-10-26T18:42:28.666Z,98984.34
2023-10-26T18:44:56.358Z,98977.38
2023-10-26T18:47:24.337Z,98985.75
2023-10-26T18:49:51.966Z,98979.72
2023-10-26T18:52:19.608Z,98981.22
2023-10-26T18:54:47.315Z,98984.56
2023-10-26T18:57:15.050Z,98983.69
2023-10-26T18:59:43.225Z,98972.69
2023-10-26T19:02:10.906Z,98964.25
2023-10-26T19:04:39.902Z,98966.97
2023-10-26T19:07:08.695Z,98972.19
2023-10-26T19:09:36.662Z,98962.06
2023-10-26T19:12:04.585Z,98956.09
2023-10-26T19:14:33.336Z,98964.47
2023-10-26T19:17:01.397Z,98950.84
2023-10-26T19:19:29.239Z,98961.00
2023-10-26T19:21:56.874Z,98956.75
2023-10-26T19:24:25.654Z,98954.19
2023-10-26T19:26:53.284Z,98953.28
2023-10-26T19:29:20.841Z,98951.59
2023-10-26T19:31:48.757Z,98950.75
2023-10-26T19:34:16.430Z,98947.31
2023-10-26T19:36:47.274Z,98942.09
2023-10-26T19:39:23.676Z,98945.44
2023-10-26T19:42:00.402Z,98940.47
2023-10-26T19:44:27.972Z,98943.19
2023-10-26T19:46:55.708Z,98938.19
2023-10-26T19:49:23.195Z,98939.94
2023-10-26T19:51:50.919Z,98934.09
2023-10-26T19:54:19.855Z,98935.81
2023-10-26T19:56:47.080Z,98932.47
2023-10-26T19:59:14.691Z,98939.16
2023-10-26T20:01:42.054Z,98928.09
2023-10-26T20:04:09.133Z,98938.13
2023-10-26T20:06:36.020Z,98937.22
2023-10-26T20:09:03.741Z,98929.59
2023-10-26T20:11:30.751Z,98915.34
2023-10-26T20:13:57.780Z,98909.41
2023-10-26T20:16:25.173Z,98913.63
2023-10-26T20:18:52.323Z,98901.69
2023-10-26T20:21:19.375Z,98908.25
2023-10-26T20:23:46.394Z,98898.09
2023-10-26T20:26:13.347Z,98901.47
2023-10-26T20:28:40.320Z,98906.56
2023-10-26T20:31:08.042Z,98887.75
2023-10-26T20:33:35.186Z,98890.13
2023-10-26T20:36:02.649Z,98895.19
2023-10-26T20:38:29.729Z,98897.59
2023-10-26T20:40:56.706Z,98884.09
2023-10-26T20:43:23.703Z,98879.88
2023-10-26T20:46:01.092Z,98875.78
2023-10-26T20:48:30.138Z,98877.34
2023-10-26T20:50:59.646Z,98872.34
2023-10-26T20:53:30.950Z,98875.78
2023-10-26T20:55:59.404Z,98871.63
2023-10-26T20:58:26.694Z,98876.75
2023-10-26T21:00:54.042Z,98872.59
2023-10-26T21:03:21.069Z,98865.81
2023-10-26T21:05:48.238Z,98866.69
2023-10-26T21:08:16.300Z,98857.41
2023-10-26T21:10:43.520Z,98867.44
2023-10-26T21:13:10.734Z,98861.41
2023-10-26T21:15:40.576Z,98852.81
2023-10-26T21:18:07.526Z,98852.75
2023-10-26T21:20:38.645Z,98848.53
2023-10-26T21:23:05.537Z,98854.38
2023-10-26T21:25:43.841Z,98854.44
2023-10-26T21:28:11.837Z,98848.53
2023-10-26T21:30:39.960Z,98847.56
2023-10-26T21:33:07.212Z,98847.50
2023-10-26T21:35:37.829Z,98838.31
2023-10-26T21:38:05.806Z,98838.19
2023-10-26T21:40:37.233Z,98832.34
2023-10-26T21:43:08.172Z,98819.94
2023-10-26T21:45:38.641Z,98831.59
2023-10-26T21:48:05.970Z,98816.25
2023-10-26T21:50:35.112Z,98818.09
2023-10-26T21:53:02.034Z,98823.06
2023-10-26T21:55:28.931Z,98816.25
2023-10-26T21:57:55.902Z,98812.03
2023-10-26T22:00:26.428Z,98812.81
2023-10-26T22:02:53.601Z,98807.75
2023-10-26T22:05:21.485Z,98809.56
2023-10-26T22:07:48.434Z,98813.00
2023-10-26T22:10:15.362Z,98795.28
2023-10-26T22:12:42.257Z,98799.63
2023-10-26T22:15:09.614Z,98797.16
2023-10-26T22:17:36.660Z,98786.03
2023-10-26T22:20:04.723Z,98787.63
2023-10-26T22:22:31.788Z,98778.31
2023-10-26T22:24:58.755Z,98775.72
2023-10-26T22:27:25.733Z,98779.09
2023-10-26T22:29:52.625Z,98776.56
2023-10-26T22:32:19.524Z,98766.63
2023-10-26T22:34:46.477Z,98766.63
2023-10-26T22:37:13.339Z,98761.63
2023-10-26T22:39:40.327Z,98757.28
2023-10-26T22:42:07.244Z,98751.22
2023-10-26T22:44:34.281Z,98752.09
2023-10-26T22:47:01.160Z,98753.03
2023-10-26T22:49:28.082Z,98750.56
2023-10-26T22:51:56.549Z,98750.66
2023-10-26T22:54:23.593Z,98754.97
2023-10-26T22:56:50.474Z,98747.34
2023-10-26T22:59:17.334Z,98741.19
2023-10-26T23:01:45.247Z,98740.22
2023-10-26T23:04:12.331Z,98741.75
2023-10-26T23:06:39.701Z,98728.25
2023-10-26T23:09:06.641Z,98729.22
2023-10-26T23:11:34.062Z,98732.56
2023-10-26T23:14:01.088Z,98720.72
2023-10-26T23:16:28.065Z,98723.38
2023-10-26T23:18:56.476Z,98709.03
2023-10-26T23:21:23.508Z,98705.75
2023-10-26T23:23:50.404Z,98698.09
2023-10-26T23:26:17.490Z,98693.06
2023-10-26T23:28:44.418Z,98693.00
2023-10-26T23:31:11.862Z,98686.19
2023-10-26T23:33:39.263Z,98684.56
2023-10-26T23:36:07.412Z,98678.63
2023-10-26T23:38:34.868Z,98681.22
2023-10-26T23:41:01.944Z,98673.78
2023-10-26T23:43:29.696Z,98671.28
2023-10-26T23:45:59.035Z,98669.66
2023-10-26T23:48:26.141Z,98660.19
2023-10-26T23:50:53.382Z,98658.38
2023-10-26T23:53:20.903Z,98662.59
2023-10-26T23:55:50.937Z,98644.03
2023-10-26T23:58:17.934Z,98641.47
